Terminal Aerodrome Forecast
Issued by NWS

Home | Current Version | Previous Version | Text Only | Print | Product List | Glossary On
Versions: 1 2 3 4 5 6 7 8 9 10 11 12 13 14 15 16 17 18 19 20 21 22 23 24 25 26
000
FTUS45 KLKN 301120
TAFTPH
TAF
KTPH 301120Z 3012/0112 VRB06KT P6SM FEW060 SCT200
     FM301900 19013G23KT P6SM FEW200
     FM010200 18008KT P6SM FEW250
     FM010500 VRB06KT P6SM FEW250=

USA.gov is the U.S. government's official web portal to all federal, state and local government web resources and services.